地図

経路データ

SID SEASON NUMBER BASIN SUBBASIN NAME ISO_TIME NATURE LAT LON WMO_WIND WMO_PRES WMO_AGENCY TRACK_TYPE DIST2LAND LANDFALL IFLAG USA_AGENCY USA_ATCF_ID USA_LAT USA_LON USA_RECORD USA_STATUS USA_WIND USA_PRES USA_SSHS USA_R34_NE USA_R34_SE USA_R34_SW USA_R34_NW USA_R50_NE USA_R50_SE USA_R50_SW USA_R50_NW USA_R64_NE USA_R64_SE USA_R64_SW USA_R64_NW USA_POCI USA_ROCI USA_RMW USA_EYE TOKYO_LAT TOKYO_LON TOKYO_GRADE TOKYO_WIND TOKYO_PRES TOKYO_R50_DIR TOKYO_R50_LONG TOKYO_R50_SHORT TOKYO_R30_DIR TOKYO_R30_LONG TOKYO_R30_SHORT TOKYO_LAND CMA_LAT CMA_LON CMA_CAT CMA_WIND CMA_PRES HKO_LAT HKO_LON HKO_CAT HKO_WIND HKO_PRES NEWDELHI_LAT NEWDELHI_LON NEWDELHI_GRADE NEWDELHI_WIND NEWDELHI_PRES NEWDELHI_CI NEWDELHI_DP NEWDELHI_POCI REUNION_LAT REUNION_LON REUNION_TYPE REUNION_WIND REUNION_PRES REUNION_TNUM REUNION_CI REUNION_RMW REUNION_R34_NE REUNION_R34_SE REUNION_R34_SW REUNION_R34_NW REUNION_R50_NE REUNION_R50_SE REUNION_R50_SW REUNION_R50_NW REUNION_R64_NE REUNION_R64_SE REUNION_R64_SW REUNION_R64_NW BOM_LAT BOM_LON BOM_TYPE BOM_WIND BOM_PRES BOM_TNUM BOM_CI BOM_RMW BOM_R34_NE BOM_R34_SE BOM_R34_SW BOM_R34_NW BOM_R50_NE BOM_R50_SE BOM_R50_SW BOM_R50_NW BOM_R64_NE BOM_R64_SE BOM_R64_SW BOM_R64_NW BOM_ROCI BOM_POCI BOM_EYE BOM_POS_METHOD BOM_PRES_METHOD NADI_LAT NADI_LON NADI_CAT NADI_WIND NADI_PRES WELLINGTON_LAT WELLINGTON_LON WELLINGTON_WIND WELLINGTON_PRES DS824_LAT DS824_LON DS824_STAGE DS824_WIND DS824_PRES TD9636_LAT TD9636_LON TD9636_STAGE TD9636_WIND TD9636_PRES TD9635_LAT TD9635_LON TD9635_WIND TD9635_PRES TD9635_ROCI NEUMANN_LAT NEUMANN_LON NEUMANN_CLASS NEUMANN_WIND NEUMANN_PRES MLC_LAT MLC_LON MLC_CLASS MLC_WIND MLC_PRES USA_GUST BOM_GUST BOM_GUST_PER REUNION_GUST REUNION_GUST_PER USA_SEAHGT USA_SEARAD_NE USA_SEARAD_SE USA_SEARAD_SW USA_SEARAD_NW STORM_SPEED STORM_DIR
1967159N14243 1967 34 EP MM AGATHA 1967-06-07 12:00:00 TS 14.0000 -117.200 45 hurdat_epa main 1251 1240 O________OO___ hurdat_epa EP011967 14.0000 -117.200 TS 45 0 14.0000 -117.200 TC 45 14.0000 -117.200 1 6 332
1967159N14243 1967 34 EP MM AGATHA 1967-06-07 15:00:00 TS 14.2541 -117.343 main 1231 1227 P________PP___ EP011967 14.2575 -117.345 TS 45 0 14.2575 -117.345 TC 45 14.2405 -117.334 1 6 330
1967159N14243 1967 34 EP MM AGATHA 1967-06-07 18:00:00 TS 14.4950 -117.497 45 hurdat_epa main 1227 1216 O________OP___ hurdat_epa EP011967 14.5000 -117.500 TS 45 0 14.5000 -117.500 TC 45 14.4748 -117.485 1 6 325
1967159N14243 1967 34 EP MM AGATHA 1967-06-07 21:00:00 TS 14.7113 -117.676 main 1223 1213 P________PP___ EP011967 14.7150 -117.678 TS 45 0 14.7150 -117.678 TC 45 14.6967 -117.668 1 6 316
1967159N14243 1967 34 EP MM AGATHA 1967-06-08 00:00:00 TS 14.9000 -117.900 45 hurdat_epa main 1220 1218 O________OO___ hurdat_epa EP011967 14.9000 -117.900 TS 45 0 14.9000 -117.900 TC 45 14.9000 -117.900 2 6 306
1967159N14243 1967 34 EP MM AGATHA 1967-06-08 03:00:00 TS 15.0676 -118.180 main 1225 1225 P________PP___ EP011967 15.0650 -118.178 TS 45 0 15.0650 -118.178 TC 45 15.0783 -118.190 2 7 298
1967159N14243 1967 34 EP MM AGATHA 1967-06-08 06:00:00 TS 15.2050 -118.504 45 hurdat_epa main 1240 1239 O________OP___ hurdat_epa EP011967 15.2000 -118.500 TS 45 0 15.2000 -118.500 TC 45 15.2253 -118.520 2 7 292
1967159N14243 1967 34 EP MM AGATHA 1967-06-08 09:00:00 TS 15.3249 -118.853 main 1263 1263 P________PP___ EP011967 15.3225 -118.850 TS 45 0 15.3225 -118.850 TC 45 15.3345 -118.865 2 7 286
1967159N14243 1967 34 EP MM AGATHA 1967-06-08 12:00:00 TS 15.4000 -119.200 45 hurdat_epa main 1276 1276 O________OO___ hurdat_epa EP011967 15.4000 -119.200 TS 45 0 15.4000 -119.200 TC 45 15.4000 -119.200 2 6 279
1967159N14243 1967 34 EP MM AGATHA 1967-06-08 15:00:00 TS 15.4224 -119.511 main 1295 1295 P________PP___ EP011967 15.4225 -119.515 TS 45 0 15.4225 -119.515 TC 45 15.4220 -119.494 2 6 270
1967159N14243 1967 34 EP MM AGATHA 1967-06-08 18:00:00 TS 15.4005 -119.795 45 hurdat_epa main 1313 1313 O________OP___ hurdat_epa EP011967 15.4000 -119.800 TS 45 0 15.4000 -119.800 TC 45 15.4023 -119.773 2 5 263
1967159N14243 1967 34 EP MM AGATHA 1967-06-08 21:00:00 TS 15.3572 -120.054 main 1333 1333 P________PP___ EP011967 15.3574 -120.058 TS 45 0 15.3574 -120.058 TC 45 15.3564 -120.040 2 5 258
1967159N14243 1967 34 EP MM AGATHA 1967-06-09 00:00:00 TS 15.3000 -120.300 45 hurdat_epa main 1355 1355 O________OO___ hurdat_epa EP011967 15.3000 -120.300 TS 45 0 15.3000 -120.300 TC 45 15.3000 -120.300 2 5 258
1967159N14243 1967 34 EP MM AGATHA 1967-06-09 03:00:00 TS 15.2522 -120.547 main 1368 1368 P________PP___ EP011967 15.2500 -120.550 TS 45 0 15.2500 -120.550 TC 45 15.2609 -120.537 2 5 258
1967159N14243 1967 34 EP MM AGATHA 1967-06-09 06:00:00 TS 15.2029 -120.794 45 hurdat_epa main 1397 1397 O________OP___ hurdat_epa EP011967 15.2000 -120.800 TS 45 0 15.2000 -120.800 TC 45 15.2145 -120.770 2 5 259
1967159N14243 1967 34 EP MM AGATHA 1967-06-09 09:00:00 TS 15.1581 -121.032 main 1411 1411 P________PP___ EP011967 15.1574 -121.035 TS 45 0 15.1574 -121.035 TC 45 15.1609 -121.018 2 5 258
1967159N14243 1967 34 EP MM AGATHA 1967-06-09 12:00:00 TS 15.1000 -121.300 45 hurdat_epa main 1440 1440 O________OO___ hurdat_epa EP011967 15.1000 -121.300 TS 45 0 15.1000 -121.300 TC 45 15.1000 -121.300 2 6 255
1967159N14243 1967 34 EP MM AGATHA 1967-06-09 15:00:00 TS 15.0031 -121.627 main 1469 1469 P________PP___ EP011967 15.0000 -121.628 TS 45 0 15.0000 -121.628 TC 45 15.0158 -121.623 2 7 254
1967159N14243 1967 34 EP MM AGATHA 1967-06-09 18:00:00 TS 14.9055 -121.997 45 hurdat_epa main 1506 1506 O________OP___ hurdat_epa EP011967 14.9000 -122.000 TS 45 0 14.9000 -122.000 TC 45 14.9273 -121.983 2 8 257
1967159N14243 1967 34 EP MM AGATHA 1967-06-09 21:00:00 TS 14.8380 -122.383 main 1543 1543 P________PP___ EP011967 14.8349 -122.385 TS 45 0 14.8349 -122.385 TC 45 14.8501 -122.376 2 8 262
1967159N14243 1967 34 EP MM AGATHA 1967-06-10 00:00:00 TS 14.8000 -122.800 45 hurdat_epa main 1573 1573 O________OO___ hurdat_epa EP011967 14.8000 -122.800 TS 45 0 14.8000 -122.800 TC 45 14.8000 -122.800 2 8 266
1967159N14243 1967 34 EP MM AGATHA 1967-06-10 03:00:00 TS 14.7856 -123.238 main 1603 1603 P________PP___ EP011967 14.7849 -123.235 TS 45 0 14.7849 -123.235 TC 45 14.7883 -123.251 2 9 270
1967159N14243 1967 34 EP MM AGATHA 1967-06-10 06:00:00 TS 14.8017 -123.704 45 hurdat_epa main 1640 1640 O________OP___ hurdat_epa EP011967 14.8000 -123.700 TS 45 0 14.8000 -123.700 TC 45 14.8084 -123.722 2 9 274
1967159N14243 1967 34 EP MM AGATHA 1967-06-10 09:00:00 TS 14.8440 -124.195 main 1679 1679 P________PP___ EP011967 14.8427 -124.192 TS 45 0 14.8427 -124.192 TC 45 14.8493 -124.207 2 10 276
1967159N14243 1967 34 EP MM AGATHA 1967-06-10 12:00:00 TS 14.9000 -124.700 45 hurdat_epa main 1711 O________OO___ hurdat_epa EP011967 14.9000 -124.700 TS 45 0 14.9000 -124.700 TC 45 14.9000 -124.700 2 10 277

IBTrACS Databaseについて

本データベースは、米国NOAAが公開する1842年以降の世界の熱帯低気圧のベストトラックデータアーカイブInternational Best Track Archive for Climate Stewardship (IBTrACS)を、ウェブで閲覧しやすい形式に変換したものです。

最終更新日:2021-12-06